sensor_id;sensor_type;location;lat;lon;timestamp;P1;durP1;ratioP1;P2;durP2;ratioP2
74223;SDS011;62585;49.706;18.216;2023-11-19T00:01:11;23.65;;;10.05;;
74223;SDS011;62585;49.706;18.216;2023-11-19T00:03:57;19.23;;;9.93;;
74223;SDS011;62585;49.706;18.216;2023-11-19T00:06:23;23.92;;;11.05;;
74223;SDS011;62585;49.706;18.216;2023-11-19T00:08:49;23.92;;;11.63;;
74223;SDS011;62585;49.706;18.216;2023-11-19T00:11:15;24.75;;;9.82;;
74223;SDS011;62585;49.706;18.216;2023-11-19T00:13:41;22.40;;;10.50;;
74223;SDS011;62585;49.706;18.216;2023-11-19T00:16:07;26.67;;;11.23;;
74223;SDS011;62585;49.706;18.216;2023-11-19T00:18:35;27.67;;;10.98;;
74223;SDS011;62585;49.706;18.216;2023-11-19T00:21:04;23.40;;;10.32;;
74223;SDS011;62585;49.706;18.216;2023-11-19T00:23:30;26.88;;;11.88;;
74223;SDS011;62585;49.706;18.216;2023-11-19T00:25:56;29.92;;;13.10;;
74223;SDS011;62585;49.706;18.216;2023-11-19T00:28:22;22.38;;;12.43;;
74223;SDS011;62585;49.706;18.216;2023-11-19T00:30:49;24.42;;;12.07;;
74223;SDS011;62585;49.706;18.216;2023-11-19T00:33:15;25.88;;;12.27;;
74223;SDS011;62585;49.706;18.216;2023-11-19T00:35:41;23.13;;;10.93;;
74223;SDS011;62585;49.706;18.216;2023-11-19T00:38:07;25.17;;;11.18;;
74223;SDS011;62585;49.706;18.216;2023-11-19T00:40:33;18.38;;;9.38;;
74223;SDS011;62585;49.706;18.216;2023-11-19T00:42:58;21.23;;;10.52;;
74223;SDS011;62585;49.706;18.216;2023-11-19T00:45:24;23.02;;;10.50;;
74223;SDS011;62585;49.706;18.216;2023-11-19T00:47:50;18.35;;;9.45;;
74223;SDS011;62585;49.706;18.216;2023-11-19T00:50:16;22.30;;;10.38;;
74223;SDS011;62585;49.706;18.216;2023-11-19T00:52:42;19.85;;;8.48;;
74223;SDS011;62585;49.706;18.216;2023-11-19T00:55:08;20.13;;;9.02;;
74223;SDS011;62585;49.706;18.216;2023-11-19T00:57:35;17.05;;;10.00;;
74223;SDS011;62585;49.706;18.216;2023-11-19T01:00:01;24.92;;;10.23;;
74223;SDS011;62585;49.706;18.216;2023-11-19T01:02:34;26.38;;;12.90;;
74223;SDS011;62585;49.706;18.216;2023-11-19T01:05:00;23.70;;;11.23;;
74223;SDS011;62585;49.706;18.216;2023-11-19T01:07:26;24.63;;;11.88;;
74223;SDS011;62585;49.706;18.216;2023-11-19T01:09:53;24.15;;;12.57;;
74223;SDS011;62585;49.706;18.216;2023-11-19T01:12:19;28.08;;;11.80;;
74223;SDS011;62585;49.706;18.216;2023-11-19T01:14:45;23.70;;;12.60;;
74223;SDS011;62585;49.706;18.216;2023-11-19T01:17:11;26.73;;;12.25;;
74223;SDS011;62585;49.706;18.216;2023-11-19T01:19:37;24.40;;;11.07;;
74223;SDS011;62585;49.706;18.216;2023-11-19T01:22:02;17.77;;;8.52;;
74223;SDS011;62585;49.706;18.216;2023-11-19T01:24:29;19.65;;;8.82;;
74223;SDS011;62585;49.706;18.216;2023-11-19T01:26:56;19.05;;;10.00;;
74223;SDS011;62585;49.706;18.216;2023-11-19T01:29:23;25.92;;;11.05;;
74223;SDS011;62585;49.706;18.216;2023-11-19T01:31:49;23.73;;;10.88;;
74223;SDS011;62585;49.706;18.216;2023-11-19T01:34:17;21.70;;;10.05;;
74223;SDS011;62585;49.706;18.216;2023-11-19T01:36:42;31.90;;;12.50;;
74223;SDS011;62585;49.706;18.216;2023-11-19T01:39:08;27.95;;;12.02;;
74223;SDS011;62585;49.706;18.216;2023-11-19T01:41:34;26.50;;;12.52;;
74223;SDS011;62585;49.706;18.216;2023-11-19T01:44:07;29.95;;;12.27;;
74223;SDS011;62585;49.706;18.216;2023-11-19T01:46:33;24.33;;;12.18;;
74223;SDS011;62585;49.706;18.216;2023-11-19T01:49:01;24.90;;;12.30;;
74223;SDS011;62585;49.706;18.216;2023-11-19T01:51:28;19.73;;;9.60;;
74223;SDS011;62585;49.706;18.216;2023-11-19T01:53:54;25.35;;;10.57;;
74223;SDS011;62585;49.706;18.216;2023-11-19T01:56:21;25.67;;;12.27;;
74223;SDS011;62585;49.706;18.216;2023-11-19T01:58:48;22.75;;;10.20;;
74223;SDS011;62585;49.706;18.216;2023-11-19T02:01:15;23.30;;;10.38;;
74223;SDS011;62585;49.706;18.216;2023-11-19T02:03:42;22.08;;;10.43;;
74223;SDS011;62585;49.706;18.216;2023-11-19T02:06:08;22.00;;;10.13;;
74223;SDS011;62585;49.706;18.216;2023-11-19T02:08:36;21.90;;;9.55;;
74223;SDS011;62585;49.706;18.216;2023-11-19T02:13:38;23.35;;;10.23;;
74223;SDS011;62585;49.706;18.216;2023-11-19T02:16:06;20.05;;;9.80;;
74223;SDS011;62585;49.706;18.216;2023-11-19T02:18:34;18.42;;;9.13;;
74223;SDS011;62585;49.706;18.216;2023-11-19T02:21:00;18.27;;;9.02;;
74223;SDS011;62585;49.706;18.216;2023-11-19T02:23:26;17.33;;;9.25;;
74223;SDS011;62585;49.706;18.216;2023-11-19T02:25:59;19.63;;;9.23;;
74223;SDS011;62585;49.706;18.216;2023-11-19T02:28:26;18.00;;;8.05;;
74223;SDS011;62585;49.706;18.216;2023-11-19T02:30:52;14.68;;;8.80;;
74223;SDS011;62585;49.706;18.216;2023-11-19T02:33:18;13.65;;;6.88;;
74223;SDS011;62585;49.706;18.216;2023-11-19T02:35:44;12.93;;;7.13;;
74223;SDS011;62585;49.706;18.216;2023-11-19T02:38:10;10.75;;;5.88;;
74223;SDS011;62585;49.706;18.216;2023-11-19T02:40:36;11.30;;;6.38;;
74223;SDS011;62585;49.706;18.216;2023-11-19T02:43:02;17.65;;;7.05;;
74223;SDS011;62585;49.706;18.216;2023-11-19T02:45:30;13.15;;;6.25;;
74223;SDS011;62585;49.706;18.216;2023-11-19T02:47:56;18.98;;;6.95;;
74223;SDS011;62585;49.706;18.216;2023-11-19T02:50:22;16.73;;;7.00;;
74223;SDS011;62585;49.706;18.216;2023-11-19T02:52:51;14.90;;;6.93;;
74223;SDS011;62585;49.706;18.216;2023-11-19T02:55:19;15.48;;;6.28;;
74223;SDS011;62585;49.706;18.216;2023-11-19T02:57:45;13.93;;;6.20;;
74223;SDS011;62585;49.706;18.216;2023-11-19T03:00:18;14.98;;;7.10;;
74223;SDS011;62585;49.706;18.216;2023-11-19T03:02:49;11.98;;;6.60;;
74223;SDS011;62585;49.706;18.216;2023-11-19T03:05:25;13.77;;;6.47;;
74223;SDS011;62585;49.706;18.216;2023-11-19T03:10:18;13.88;;;6.43;;
74223;SDS011;62585;49.706;18.216;2023-11-19T03:12:44;10.88;;;6.18;;
74223;SDS011;62585;49.706;18.216;2023-11-19T03:15:11;13.00;;;6.20;;
74223;SDS011;62585;49.706;18.216;2023-11-19T03:17:40;14.10;;;7.03;;
74223;SDS011;62585;49.706;18.216;2023-11-19T03:20:11;14.32;;;6.40;;
74223;SDS011;62585;49.706;18.216;2023-11-19T03:22:40;10.23;;;5.75;;
74223;SDS011;62585;49.706;18.216;2023-11-19T03:25:07;14.18;;;6.88;;
74223;SDS011;62585;49.706;18.216;2023-11-19T03:27:37;13.95;;;6.40;;
74223;SDS011;62585;49.706;18.216;2023-11-19T03:30:09;14.00;;;6.07;;
74223;SDS011;62585;49.706;18.216;2023-11-19T03:32:36;16.45;;;6.53;;
74223;SDS011;62585;49.706;18.216;2023-11-19T03:35:02;12.20;;;7.35;;
74223;SDS011;62585;49.706;18.216;2023-11-19T03:37:34;9.98;;;5.70;;
74223;SDS011;62585;49.706;18.216;2023-11-19T03:40:02;14.13;;;6.38;;
74223;SDS011;62585;49.706;18.216;2023-11-19T03:42:28;12.23;;;6.60;;
74223;SDS011;62585;49.706;18.216;2023-11-19T03:44:58;8.93;;;5.30;;
74223;SDS011;62585;49.706;18.216;2023-11-19T03:47:24;12.88;;;6.22;;
74223;SDS011;62585;49.706;18.216;2023-11-19T03:49:50;16.15;;;6.97;;
74223;SDS011;62585;49.706;18.216;2023-11-19T03:52:16;13.70;;;6.57;;
74223;SDS011;62585;49.706;18.216;2023-11-19T03:54:43;14.25;;;6.53;;
74223;SDS011;62585;49.706;18.216;2023-11-19T03:57:10;11.48;;;5.68;;
74223;SDS011;62585;49.706;18.216;2023-11-19T03:59:39;12.48;;;5.88;;
74223;SDS011;62585;49.706;18.216;2023-11-19T04:02:05;14.05;;;5.40;;
74223;SDS011;62585;49.706;18.216;2023-11-19T04:04:31;11.82;;;6.55;;
74223;SDS011;62585;49.706;18.216;2023-11-19T04:06:58;15.43;;;7.85;;
74223;SDS011;62585;49.706;18.216;2023-11-19T04:09:26;16.75;;;7.18;;
74223;SDS011;62585;49.706;18.216;2023-11-19T04:11:52;15.05;;;8.82;;
74223;SDS011;62585;49.706;18.216;2023-11-19T04:14:18;18.15;;;9.48;;
74223;SDS011;62585;49.706;18.216;2023-11-19T04:16:44;16.65;;;9.18;;
74223;SDS011;62585;49.706;18.216;2023-11-19T04:19:10;21.42;;;9.15;;
74223;SDS011;62585;49.706;18.216;2023-11-19T04:21:39;20.40;;;9.60;;
74223;SDS011;62585;49.706;18.216;2023-11-19T04:24:07;17.02;;;8.75;;
74223;SDS011;62585;49.706;18.216;2023-11-19T04:26:33;19.20;;;8.88;;
74223;SDS011;62585;49.706;18.216;2023-11-19T04:28:59;17.42;;;8.77;;
74223;SDS011;62585;49.706;18.216;2023-11-19T04:31:29;15.73;;;7.57;;
74223;SDS011;62585;49.706;18.216;2023-11-19T04:33:56;18.67;;;8.95;;
74223;SDS011;62585;49.706;18.216;2023-11-19T04:36:22;19.30;;;8.02;;
74223;SDS011;62585;49.706;18.216;2023-11-19T04:38:50;18.30;;;8.90;;
74223;SDS011;62585;49.706;18.216;2023-11-19T04:41:16;17.02;;;9.40;;
74223;SDS011;62585;49.706;18.216;2023-11-19T04:43:42;20.08;;;9.23;;
74223;SDS011;62585;49.706;18.216;2023-11-19T04:46:09;21.65;;;9.88;;
74223;SDS011;62585;49.706;18.216;2023-11-19T04:48:35;19.95;;;9.40;;
74223;SDS011;62585;49.706;18.216;2023-11-19T04:51:01;21.60;;;10.70;;
74223;SDS011;62585;49.706;18.216;2023-11-19T04:53:29;13.30;;;7.07;;
74223;SDS011;62585;49.706;18.216;2023-11-19T04:55:55;12.10;;;6.53;;
74223;SDS011;62585;49.706;18.216;2023-11-19T04:58:21;12.43;;;7.45;;
74223;SDS011;62585;49.706;18.216;2023-11-19T05:00:47;16.42;;;7.32;;
74223;SDS011;62585;49.706;18.216;2023-11-19T05:03:12;21.10;;;8.95;;
74223;SDS011;62585;49.706;18.216;2023-11-19T05:05:38;16.38;;;8.07;;
74223;SDS011;62585;49.706;18.216;2023-11-19T05:08:04;16.40;;;7.35;;
74223;SDS011;62585;49.706;18.216;2023-11-19T05:10:30;15.10;;;8.30;;
74223;SDS011;62585;49.706;18.216;2023-11-19T05:12:57;18.33;;;8.70;;
74223;SDS011;62585;49.706;18.216;2023-11-19T05:15:23;18.45;;;9.57;;
74223;SDS011;62585;49.706;18.216;2023-11-19T05:17:49;20.45;;;9.20;;
74223;SDS011;62585;49.706;18.216;2023-11-19T05:20:15;26.17;;;13.13;;
74223;SDS011;62585;49.706;18.216;2023-11-19T05:22:42;27.13;;;11.73;;
74223;SDS011;62585;49.706;18.216;2023-11-19T05:25:08;20.17;;;10.70;;
74223;SDS011;62585;49.706;18.216;2023-11-19T05:27:35;21.38;;;9.40;;
74223;SDS011;62585;49.706;18.216;2023-11-19T05:30:02;20.08;;;9.73;;
74223;SDS011;62585;49.706;18.216;2023-11-19T05:32:32;19.38;;;9.93;;
74223;SDS011;62585;49.706;18.216;2023-11-19T05:34:59;20.60;;;8.88;;
74223;SDS011;62585;49.706;18.216;2023-11-19T05:37:24;17.45;;;9.10;;
74223;SDS011;62585;49.706;18.216;2023-11-19T05:39:50;19.60;;;9.30;;
74223;SDS011;62585;49.706;18.216;2023-11-19T05:42:16;20.38;;;8.63;;
74223;SDS011;62585;49.706;18.216;2023-11-19T05:44:42;21.83;;;8.85;;
74223;SDS011;62585;49.706;18.216;2023-11-19T05:47:08;20.20;;;9.48;;
74223;SDS011;62585;49.706;18.216;2023-11-19T05:49:34;18.85;;;7.97;;
74223;SDS011;62585;49.706;18.216;2023-11-19T05:52:00;16.98;;;7.95;;
74223;SDS011;62585;49.706;18.216;2023-11-19T05:54:28;17.60;;;9.18;;
74223;SDS011;62585;49.706;18.216;2023-11-19T05:56:54;19.83;;;9.05;;
74223;SDS011;62585;49.706;18.216;2023-11-19T05:59:20;17.92;;;8.95;;
74223;SDS011;62585;49.706;18.216;2023-11-19T06:01:48;19.65;;;9.35;;
74223;SDS011;62585;49.706;18.216;2023-11-19T06:04:14;19.70;;;10.60;;
74223;SDS011;62585;49.706;18.216;2023-11-19T06:06:41;18.15;;;9.05;;
74223;SDS011;62585;49.706;18.216;2023-11-19T06:09:07;19.88;;;9.68;;
74223;SDS011;62585;49.706;18.216;2023-11-19T06:11:34;18.00;;;8.77;;
74223;SDS011;62585;49.706;18.216;2023-11-19T06:14:01;19.05;;;9.88;;
74223;SDS011;62585;49.706;18.216;2023-11-19T06:16:28;17.33;;;8.52;;
74223;SDS011;62585;49.706;18.216;2023-11-19T06:18:54;16.30;;;7.95;;
74223;SDS011;62585;49.706;18.216;2023-11-19T06:21:20;14.18;;;7.07;;
74223;SDS011;62585;49.706;18.216;2023-11-19T06:23:46;21.02;;;8.13;;
74223;SDS011;62585;49.706;18.216;2023-11-19T06:26:12;17.55;;;8.95;;
74223;SDS011;62585;49.706;18.216;2023-11-19T06:28:39;16.42;;;9.48;;
74223;SDS011;62585;49.706;18.216;2023-11-19T06:31:05;17.88;;;9.73;;
74223;SDS011;62585;49.706;18.216;2023-11-19T06:33:31;21.05;;;9.95;;
74223;SDS011;62585;49.706;18.216;2023-11-19T06:35:57;18.73;;;9.13;;
74223;SDS011;62585;49.706;18.216;2023-11-19T06:38:25;17.00;;;8.60;;
74223;SDS011;62585;49.706;18.216;2023-11-19T06:40:51;13.93;;;7.03;;
74223;SDS011;62585;49.706;18.216;2023-11-19T06:43:17;16.73;;;6.75;;
74223;SDS011;62585;49.706;18.216;2023-11-19T06:45:43;14.35;;;7.15;;
74223;SDS011;62585;49.706;18.216;2023-11-19T06:48:09;12.77;;;6.57;;
74223;SDS011;62585;49.706;18.216;2023-11-19T06:50:34;11.35;;;6.78;;
74223;SDS011;62585;49.706;18.216;2023-11-19T06:53:00;10.73;;;5.80;;
74223;SDS011;62585;49.706;18.216;2023-11-19T06:55:26;12.10;;;5.95;;
74223;SDS011;62585;49.706;18.216;2023-11-19T06:57:53;17.55;;;8.05;;
74223;SDS011;62585;49.706;18.216;2023-11-19T07:00:18;12.70;;;8.27;;
74223;SDS011;62585;49.706;18.216;2023-11-19T07:02:44;22.20;;;11.30;;
74223;SDS011;62585;49.706;18.216;2023-11-19T07:05:10;27.95;;;13.35;;
74223;SDS011;62585;49.706;18.216;2023-11-19T07:07:38;18.27;;;8.82;;
74223;SDS011;62585;49.706;18.216;2023-11-19T07:10:05;10.82;;;4.85;;
74223;SDS011;62585;49.706;18.216;2023-11-19T07:12:34;12.27;;;5.65;;
74223;SDS011;62585;49.706;18.216;2023-11-19T07:15:01;7.78;;;3.95;;
74223;SDS011;62585;49.706;18.216;2023-11-19T07:17:30;11.25;;;5.00;;
74223;SDS011;62585;49.706;18.216;2023-11-19T07:19:56;10.63;;;5.90;;
74223;SDS011;62585;49.706;18.216;2023-11-19T07:22:25;10.32;;;4.95;;
74223;SDS011;62585;49.706;18.216;2023-11-19T07:24:51;7.82;;;3.47;;
74223;SDS011;62585;49.706;18.216;2023-11-19T07:27:18;6.97;;;3.92;;
74223;SDS011;62585;49.706;18.216;2023-11-19T07:29:44;7.82;;;4.07;;
74223;SDS011;62585;49.706;18.216;2023-11-19T07:32:10;6.68;;;3.50;;
74223;SDS011;62585;49.706;18.216;2023-11-19T07:34:38;13.25;;;3.25;;
74223;SDS011;62585;49.706;18.216;2023-11-19T07:37:05;7.57;;;3.20;;
74223;SDS011;62585;49.706;18.216;2023-11-19T07:39:31;6.45;;;3.55;;
74223;SDS011;62585;49.706;18.216;2023-11-19T07:41:58;7.80;;;4.07;;
74223;SDS011;62585;49.706;18.216;2023-11-19T07:44:24;13.38;;;5.90;;
74223;SDS011;62585;49.706;18.216;2023-11-19T07:46:50;6.78;;;3.55;;
74223;SDS011;62585;49.706;18.216;2023-11-19T07:49:16;11.15;;;4.32;;
74223;SDS011;62585;49.706;18.216;2023-11-19T07:51:42;9.77;;;5.55;;
74223;SDS011;62585;49.706;18.216;2023-11-19T07:54:07;9.07;;;3.85;;
74223;SDS011;62585;49.706;18.216;2023-11-19T07:56:34;7.95;;;4.25;;
74223;SDS011;62585;49.706;18.216;2023-11-19T07:59:01;6.95;;;3.75;;
74223;SDS011;62585;49.706;18.216;2023-11-19T08:01:27;10.05;;;3.97;;
74223;SDS011;62585;49.706;18.216;2023-11-19T08:03:53;10.70;;;6.00;;
74223;SDS011;62585;49.706;18.216;2023-11-19T08:06:19;11.05;;;6.05;;
74223;SDS011;62585;49.706;18.216;2023-11-19T08:08:45;10.68;;;6.35;;
74223;SDS011;62585;49.706;18.216;2023-11-19T08:11:13;12.82;;;5.72;;
74223;SDS011;62585;49.706;18.216;2023-11-19T08:13:40;8.45;;;5.10;;
74223;SDS011;62585;49.706;18.216;2023-11-19T08:16:07;12.98;;;5.25;;
74223;SDS011;62585;49.706;18.216;2023-11-19T08:18:33;8.38;;;4.93;;
74223;SDS011;62585;49.706;18.216;2023-11-19T08:20:59;8.23;;;4.82;;
74223;SDS011;62585;49.706;18.216;2023-11-19T08:23:26;9.27;;;4.85;;
74223;SDS011;62585;49.706;18.216;2023-11-19T08:25:54;5.35;;;2.47;;
74223;SDS011;62585;49.706;18.216;2023-11-19T08:28:19;4.45;;;2.55;;
74223;SDS011;62585;49.706;18.216;2023-11-19T08:30:46;5.72;;;2.60;;
74223;SDS011;62585;49.706;18.216;2023-11-19T08:33:11;4.97;;;2.78;;
74223;SDS011;62585;49.706;18.216;2023-11-19T08:35:37;5.57;;;2.58;;
74223;SDS011;62585;49.706;18.216;2023-11-19T08:38:03;6.40;;;2.50;;
74223;SDS011;62585;49.706;18.216;2023-11-19T08:40:29;3.95;;;2.45;;
74223;SDS011;62585;49.706;18.216;2023-11-19T08:42:55;2.90;;;1.83;;
74223;SDS011;62585;49.706;18.216;2023-11-19T08:45:22;5.63;;;2.40;;
74223;SDS011;62585;49.706;18.216;2023-11-19T08:47:47;5.68;;;2.75;;
74223;SDS011;62585;49.706;18.216;2023-11-19T08:50:13;7.40;;;3.85;;
74223;SDS011;62585;49.706;18.216;2023-11-19T08:52:39;7.72;;;4.43;;
74223;SDS011;62585;49.706;18.216;2023-11-19T08:55:05;4.63;;;2.47;;
74223;SDS011;62585;49.706;18.216;2023-11-19T08:57:31;5.47;;;2.55;;
74223;SDS011;62585;49.706;18.216;2023-11-19T08:59:58;4.80;;;1.67;;
74223;SDS011;62585;49.706;18.216;2023-11-19T09:02:24;2.60;;;1.83;;
74223;SDS011;62585;49.706;18.216;2023-11-19T09:04:51;5.47;;;2.47;;
74223;SDS011;62585;49.706;18.216;2023-11-19T09:07:16;4.65;;;2.20;;
74223;SDS011;62585;49.706;18.216;2023-11-19T09:09:43;6.65;;;2.85;;
74223;SDS011;62585;49.706;18.216;2023-11-19T09:12:08;3.05;;;1.95;;
74223;SDS011;62585;49.706;18.216;2023-11-19T09:14:34;4.43;;;2.63;;
74223;SDS011;62585;49.706;18.216;2023-11-19T09:17:00;5.28;;;3.05;;
74223;SDS011;62585;49.706;18.216;2023-11-19T09:19:26;4.00;;;2.50;;
74223;SDS011;62585;49.706;18.216;2023-11-19T09:21:53;7.10;;;2.63;;
74223;SDS011;62585;49.706;18.216;2023-11-19T09:24:19;5.10;;;2.50;;
74223;SDS011;62585;49.706;18.216;2023-11-19T09:26:44;5.07;;;2.47;;
74223;SDS011;62585;49.706;18.216;2023-11-19T09:29:10;4.20;;;2.47;;
74223;SDS011;62585;49.706;18.216;2023-11-19T09:31:39;3.80;;;2.53;;
74223;SDS011;62585;49.706;18.216;2023-11-19T09:34:06;3.88;;;2.20;;
74223;SDS011;62585;49.706;18.216;2023-11-19T09:36:31;5.07;;;2.30;;
74223;SDS011;62585;49.706;18.216;2023-11-19T09:38:58;5.63;;;2.67;;
74223;SDS011;62585;49.706;18.216;2023-11-19T09:43:53;6.53;;;2.70;;
74223;SDS011;62585;49.706;18.216;2023-11-19T09:46:21;3.65;;;2.42;;
74223;SDS011;62585;49.706;18.216;2023-11-19T09:48:49;3.47;;;2.63;;
74223;SDS011;62585;49.706;18.216;2023-11-19T09:51:20;3.83;;;2.60;;
74223;SDS011;62585;49.706;18.216;2023-11-19T09:53:46;7.70;;;2.83;;
74223;SDS011;62585;49.706;18.216;2023-11-19T09:56:11;5.20;;;2.08;;
74223;SDS011;62585;49.706;18.216;2023-11-19T09:58:38;4.70;;;2.58;;
74223;SDS011;62585;49.706;18.216;2023-11-19T10:01:05;5.90;;;2.58;;
74223;SDS011;62585;49.706;18.216;2023-11-19T10:03:33;4.22;;;2.97;;
74223;SDS011;62585;49.706;18.216;2023-11-19T10:06:05;3.67;;;2.58;;
74223;SDS011;62585;49.706;18.216;2023-11-19T10:08:33;5.43;;;2.67;;
74223;SDS011;62585;49.706;18.216;2023-11-19T10:10:59;2.92;;;2.25;;
74223;SDS011;62585;49.706;18.216;2023-11-19T10:13:28;5.80;;;3.15;;
74223;SDS011;62585;49.706;18.216;2023-11-19T10:15:57;4.88;;;3.05;;
74223;SDS011;62585;49.706;18.216;2023-11-19T10:18:26;3.95;;;2.40;;
74223;SDS011;62585;49.706;18.216;2023-11-19T10:20:52;3.95;;;1.92;;
74223;SDS011;62585;49.706;18.216;2023-11-19T10:25:46;1.95;;;1.35;;
74223;SDS011;62585;49.706;18.216;2023-11-19T10:28:12;3.30;;;1.70;;
74223;SDS011;62585;49.706;18.216;2023-11-19T10:30:41;2.83;;;1.75;;
74223;SDS011;62585;49.706;18.216;2023-11-19T10:33:08;5.95;;;2.45;;
74223;SDS011;62585;49.706;18.216;2023-11-19T10:38:14;4.50;;;2.13;;
74223;SDS011;62585;49.706;18.216;2023-11-19T10:40:43;3.30;;;2.38;;
74223;SDS011;62585;49.706;18.216;2023-11-19T10:43:09;4.10;;;1.83;;
74223;SDS011;62585;49.706;18.216;2023-11-19T10:45:36;4.07;;;2.10;;
74223;SDS011;62585;49.706;18.216;2023-11-19T10:48:03;5.00;;;1.90;;
74223;SDS011;62585;49.706;18.216;2023-11-19T10:50:35;5.18;;;2.55;;
74223;SDS011;62585;49.706;18.216;2023-11-19T10:53:02;4.13;;;2.15;;
74223;SDS011;62585;49.706;18.216;2023-11-19T10:55:30;4.82;;;2.45;;
74223;SDS011;62585;49.706;18.216;2023-11-19T10:57:59;3.80;;;2.30;;
74223;SDS011;62585;49.706;18.216;2023-11-19T11:00:28;2.15;;;1.67;;
74223;SDS011;62585;49.706;18.216;2023-11-19T11:03:00;2.97;;;1.60;;
74223;SDS011;62585;49.706;18.216;2023-11-19T11:05:29;3.85;;;2.28;;
74223;SDS011;62585;49.706;18.216;2023-11-19T11:07:57;3.70;;;2.22;;
74223;SDS011;62585;49.706;18.216;2023-11-19T11:10:26;3.05;;;2.10;;
74223;SDS011;62585;49.706;18.216;2023-11-19T11:12:52;4.65;;;2.40;;
74223;SDS011;62585;49.706;18.216;2023-11-19T11:15:25;3.53;;;2.08;;
74223;SDS011;62585;49.706;18.216;2023-11-19T11:17:55;3.38;;;2.10;;
74223;SDS011;62585;49.706;18.216;2023-11-19T11:20:25;3.78;;;2.85;;
74223;SDS011;62585;49.706;18.216;2023-11-19T11:31:36;3.15;;;1.98;;
74223;SDS011;62585;49.706;18.216;2023-11-19T11:39:24;3.25;;;2.40;;
74223;SDS011;62585;49.706;18.216;2023-11-19T11:45:06;3.00;;;2.05;;
74223;SDS011;62585;49.706;18.216;2023-11-19T11:50:09;4.60;;;2.33;;
74223;SDS011;62585;49.706;18.216;2023-11-19T11:55:34;3.10;;;1.92;;
74223;SDS011;62585;49.706;18.216;2023-11-19T11:58:02;1.55;;;1.08;;
74223;SDS011;62585;49.706;18.216;2023-11-19T12:00:30;5.43;;;2.50;;
74223;SDS011;62585;49.706;18.216;2023-11-19T12:03:04;5.40;;;2.47;;
74223;SDS011;62585;49.706;18.216;2023-11-19T12:05:32;1.67;;;1.08;;
74223;SDS011;62585;49.706;18.216;2023-11-19T12:07:59;4.40;;;2.55;;
74223;SDS011;62585;49.706;18.216;2023-11-19T12:10:31;4.55;;;2.35;;
74223;SDS011;62585;49.706;18.216;2023-11-19T12:13:01;4.20;;;2.33;;
74223;SDS011;62585;49.706;18.216;2023-11-19T12:15:28;4.90;;;2.33;;
74223;SDS011;62585;49.706;18.216;2023-11-19T12:17:54;3.65;;;1.67;;
74223;SDS011;62585;49.706;18.216;2023-11-19T12:20:24;3.63;;;2.28;;
74223;SDS011;62585;49.706;18.216;2023-11-19T12:22:51;4.25;;;1.92;;
74223;SDS011;62585;49.706;18.216;2023-11-19T12:27:48;4.13;;;2.10;;
74223;SDS011;62585;49.706;18.216;2023-11-19T12:30:22;2.15;;;1.40;;
74223;SDS011;62585;49.706;18.216;2023-11-19T12:32:49;2.95;;;2.35;;
74223;SDS011;62585;49.706;18.216;2023-11-19T12:35:16;4.13;;;2.65;;
74223;SDS011;62585;49.706;18.216;2023-11-19T12:37:42;3.50;;;1.25;;
74223;SDS011;62585;49.706;18.216;2023-11-19T12:42:45;2.22;;;1.35;;
74223;SDS011;62585;49.706;18.216;2023-11-19T12:45:11;4.10;;;1.70;;
74223;SDS011;62585;49.706;18.216;2023-11-19T12:47:44;2.40;;;1.67;;
74223;SDS011;62585;49.706;18.216;2023-11-19T12:50:13;2.50;;;1.70;;
74223;SDS011;62585;49.706;18.216;2023-11-19T12:52:39;3.50;;;1.65;;
74223;SDS011;62585;49.706;18.216;2023-11-19T12:55:23;1.13;;;0.98;;
74223;SDS011;62585;49.706;18.216;2023-11-19T13:00:23;5.68;;;1.75;;
74223;SDS011;62585;49.706;18.216;2023-11-19T13:02:51;2.88;;;1.13;;
74223;SDS011;62585;49.706;18.216;2023-11-19T13:05:31;1.65;;;1.00;;
74223;SDS011;62585;49.706;18.216;2023-11-19T13:10:28;1.35;;;0.90;;
74223;SDS011;62585;49.706;18.216;2023-11-19T13:13:01;3.95;;;1.38;;
74223;SDS011;62585;49.706;18.216;2023-11-19T13:15:32;3.75;;;1.40;;
74223;SDS011;62585;49.706;18.216;2023-11-19T13:17:58;2.35;;;1.48;;
74223;SDS011;62585;49.706;18.216;2023-11-19T13:20:25;2.53;;;1.35;;
74223;SDS011;62585;49.706;18.216;2023-11-19T13:23:01;4.07;;;1.63;;
74223;SDS011;62585;49.706;18.216;2023-11-19T13:25:28;1.77;;;1.10;;
74223;SDS011;62585;49.706;18.216;2023-11-19T13:27:57;2.88;;;1.67;;
74223;SDS011;62585;49.706;18.216;2023-11-19T13:30:31;2.70;;;1.75;;
74223;SDS011;62585;49.706;18.216;2023-11-19T13:33:01;2.20;;;1.02;;
74223;SDS011;62585;49.706;18.216;2023-11-19T13:35:39;3.67;;;1.40;;
74223;SDS011;62585;49.706;18.216;2023-11-19T13:38:08;3.08;;;1.70;;
74223;SDS011;62585;49.706;18.216;2023-11-19T13:40:34;3.17;;;1.60;;
74223;SDS011;62585;49.706;18.216;2023-11-19T13:43:00;1.70;;;1.10;;
74223;SDS011;62585;49.706;18.216;2023-11-19T13:48:05;1.88;;;1.25;;
74223;SDS011;62585;49.706;18.216;2023-11-19T13:50:37;0.98;;;0.73;;
74223;SDS011;62585;49.706;18.216;2023-11-19T13:53:03;1.52;;;0.88;;
74223;SDS011;62585;49.706;18.216;2023-11-19T13:55:30;1.30;;;1.05;;
74223;SDS011;62585;49.706;18.216;2023-11-19T13:57:56;1.10;;;1.00;;
74223;SDS011;62585;49.706;18.216;2023-11-19T14:00:22;1.50;;;0.95;;
74223;SDS011;62585;49.706;18.216;2023-11-19T14:02:49;1.95;;;1.00;;
74223;SDS011;62585;49.706;18.216;2023-11-19T14:05:15;1.67;;;0.63;;
74223;SDS011;62585;49.706;18.216;2023-11-19T14:07:44;2.05;;;1.30;;
74223;SDS011;62585;49.706;18.216;2023-11-19T14:10:13;2.60;;;1.20;;
74223;SDS011;62585;49.706;18.216;2023-11-19T14:12:40;2.30;;;1.02;;
74223;SDS011;62585;49.706;18.216;2023-11-19T14:15:07;1.75;;;1.20;;
74223;SDS011;62585;49.706;18.216;2023-11-19T14:17:38;1.20;;;0.85;;
74223;SDS011;62585;49.706;18.216;2023-11-19T14:20:04;1.55;;;0.93;;
74223;SDS011;62585;49.706;18.216;2023-11-19T14:22:44;1.38;;;0.82;;
74223;SDS011;62585;49.706;18.216;2023-11-19T14:25:13;1.17;;;0.98;;
74223;SDS011;62585;49.706;18.216;2023-11-19T14:27:40;1.88;;;0.73;;
74223;SDS011;62585;49.706;18.216;2023-11-19T14:30:07;1.88;;;1.20;;
74223;SDS011;62585;49.706;18.216;2023-11-19T14:32:36;2.60;;;1.00;;
74223;SDS011;62585;49.706;18.216;2023-11-19T14:35:03;2.63;;;1.20;;
74223;SDS011;62585;49.706;18.216;2023-11-19T14:37:30;1.95;;;1.02;;
74223;SDS011;62585;49.706;18.216;2023-11-19T14:39:59;1.40;;;0.73;;
74223;SDS011;62585;49.706;18.216;2023-11-19T14:42:26;1.10;;;1.00;;
74223;SDS011;62585;49.706;18.216;2023-11-19T14:44:52;1.58;;;1.35;;
74223;SDS011;62585;49.706;18.216;2023-11-19T14:47:18;3.42;;;1.83;;
74223;SDS011;62585;49.706;18.216;2023-11-19T14:49:48;1.85;;;1.05;;
74223;SDS011;62585;49.706;18.216;2023-11-19T14:52:13;2.75;;;1.25;;
74223;SDS011;62585;49.706;18.216;2023-11-19T14:54:39;1.23;;;0.90;;
74223;SDS011;62585;49.706;18.216;2023-11-19T14:57:05;2.88;;;1.25;;
74223;SDS011;62585;49.706;18.216;2023-11-19T14:59:34;2.83;;;1.75;;
74223;SDS011;62585;49.706;18.216;2023-11-19T15:02:00;2.90;;;1.55;;
74223;SDS011;62585;49.706;18.216;2023-11-19T15:04:28;2.30;;;1.17;;
74223;SDS011;62585;49.706;18.216;2023-11-19T15:06:59;2.17;;;1.17;;
74223;SDS011;62585;49.706;18.216;2023-11-19T15:09:25;1.95;;;1.23;;
74223;SDS011;62585;49.706;18.216;2023-11-19T15:11:54;2.83;;;0.95;;
74223;SDS011;62585;49.706;18.216;2023-11-19T15:14:21;2.00;;;1.13;;